createdAt,value
2017-07-24T00:00:19.607Z,14.3
2017-07-24T00:01:21.666Z,14.3
2017-07-24T00:02:23.713Z,14.3
2017-07-24T00:03:25.762Z,14.3
2017-07-24T00:04:27.821Z,14.3
2017-07-24T00:05:30.202Z,14.3
2017-07-24T00:06:32.593Z,14.3
2017-07-24T00:07:34.654Z,14.3
2017-07-24T00:08:36.694Z,14.3
2017-07-24T00:09:38.750Z,14.3
2017-07-24T00:10:40.791Z,14.3
2017-07-24T00:11:43.514Z,14.3
2017-07-24T00:12:45.565Z,14.3
2017-07-24T00:13:47.617Z,14.3
2017-07-24T00:14:49.997Z,14.3
2017-07-24T00:15:52.047Z,14.3
2017-07-24T00:16:54.086Z,14.3
2017-07-24T00:17:56.132Z,14.2
2017-07-24T00:18:58.175Z,14.2
2017-07-24T00:20:00.225Z,14.2
2017-07-24T00:21:02.275Z,14.2
2017-07-24T00:22:04.330Z,14.2
2017-07-24T00:23:06.728Z,14.2
2017-07-24T00:24:08.781Z,14.2
2017-07-24T00:25:10.856Z,14.2
2017-07-24T00:26:12.914Z,14.2
2017-07-24T00:27:14.962Z,14.1
2017-07-24T00:28:17.032Z,14.1
2017-07-24T00:29:19.085Z,14.1
2017-07-24T00:30:21.126Z,14.1
2017-07-24T00:31:23.173Z,14.1
2017-07-24T00:32:25.232Z,14.1
2017-07-24T00:33:27.284Z,14.1
2017-07-24T00:34:29.324Z,14
2017-07-24T00:35:31.705Z,13.9
2017-07-24T00:36:33.762Z,13.9
2017-07-24T00:37:35.811Z,13.9
2017-07-24T00:38:37.858Z,13.9
2017-07-24T00:39:40.252Z,14
2017-07-24T00:40:42.330Z,14
2017-07-24T00:41:44.724Z,14
2017-07-24T00:42:47.112Z,14
2017-07-24T00:43:49.499Z,13.9
2017-07-24T00:44:51.548Z,13.9
2017-07-24T00:45:53.598Z,13.9
2017-07-24T00:46:55.984Z,13.9
2017-07-24T00:47:58.024Z,13.8
2017-07-24T00:49:00.084Z,13.8
2017-07-24T00:50:02.474Z,13.8
2017-07-24T00:51:05.193Z,13.8
2017-07-24T00:52:07.244Z,13.8
2017-07-24T00:53:09.631Z,13.8
2017-07-24T00:54:11.688Z,13.8
2017-07-24T00:55:14.420Z,13.7
2017-07-24T00:56:16.485Z,13.7
2017-07-24T00:57:18.870Z,13.7
2017-07-24T00:58:21.573Z,13.7
2017-07-24T00:59:23.622Z,13.7
2017-07-24T01:00:26.039Z,13.7
2017-07-24T01:01:28.454Z,13.7
2017-07-24T01:02:30.850Z,13.7
2017-07-24T01:03:33.240Z,13.7
2017-07-24T01:04:35.289Z,13.6
2017-07-24T01:05:37.673Z,13.6
2017-07-24T01:06:40.059Z,13.6
2017-07-24T01:07:42.105Z,13.6
2017-07-24T01:08:44.158Z,13.6
2017-07-24T01:09:46.549Z,13.6
2017-07-24T01:10:48.595Z,13.6
2017-07-24T01:11:51.327Z,13.6
2017-07-24T01:12:53.374Z,13.6
2017-07-24T01:13:55.421Z,13.6
2017-07-24T01:14:57.463Z,13.5
2017-07-24T01:15:59.510Z,13.5
2017-07-24T01:17:02.252Z,13.5
2017-07-24T01:18:04.335Z,13.5
2017-07-24T01:19:06.389Z,13.4
2017-07-24T01:20:08.431Z,13.4
2017-07-24T01:21:10.484Z,13.4
2017-07-24T01:22:12.872Z,13.4
2017-07-24T01:23:14.926Z,13.4
2017-07-24T01:24:17.323Z,13.3
2017-07-24T01:25:19.364Z,13.3
2017-07-24T01:26:21.419Z,13.3
2017-07-24T01:27:23.477Z,13.3
2017-07-24T01:28:25.534Z,13.3
2017-07-24T01:29:27.579Z,13.3
2017-07-24T01:30:29.625Z,13.3
2017-07-24T01:31:31.687Z,13.3
2017-07-24T01:32:33.727Z,13.3
2017-07-24T01:33:36.106Z,13.3
2017-07-24T01:34:38.160Z,13.3
2017-07-24T01:35:40.198Z,13.3
2017-07-24T01:36:43.261Z,13.3
2017-07-24T01:37:45.652Z,13.3
2017-07-24T01:38:48.029Z,13.3
2017-07-24T01:39:50.096Z,13.2
2017-07-24T01:40:52.165Z,13.2
2017-07-24T01:41:54.214Z,13.2
2017-07-24T01:42:56.245Z,13.2
2017-07-24T01:43:58.304Z,13.2
2017-07-24T01:45:00.351Z,13.2
2017-07-24T01:46:03.079Z,13.2
2017-07-24T01:47:05.801Z,13.2
2017-07-24T01:48:08.174Z,13.2
2017-07-24T01:49:10.234Z,13.2
2017-07-24T01:50:12.272Z,13.2
2017-07-24T01:51:14.317Z,13.2
2017-07-24T01:52:16.373Z,13.2
2017-07-24T01:53:18.419Z,13.2
2017-07-24T01:54:20.473Z,13.2
2017-07-24T01:55:22.515Z,13.2
2017-07-24T01:56:24.573Z,13.2
2017-07-24T01:57:27.001Z,13.2
2017-07-24T01:58:29.036Z,13.2
2017-07-24T01:59:31.440Z,13.2
2017-07-24T02:00:33.490Z,13.2
2017-07-24T02:01:35.887Z,13.1
2017-07-24T02:02:37.925Z,13.1
2017-07-24T02:03:39.980Z,13.1
2017-07-24T02:04:42.703Z,13.1
2017-07-24T02:05:44.750Z,13.1
2017-07-24T02:06:46.783Z,13.1
2017-07-24T02:07:48.827Z,13.1
2017-07-24T02:08:51.213Z,13
2017-07-24T02:09:53.260Z,13
2017-07-24T02:10:55.313Z,13.1
2017-07-24T02:11:57.731Z,13
2017-07-24T02:12:59.769Z,13
2017-07-24T02:14:01.817Z,13.1
2017-07-24T02:15:04.886Z,13.1
2017-07-24T02:16:07.273Z,13.1
2017-07-24T02:17:09.325Z,13.1
2017-07-24T02:18:11.708Z,13.1
2017-07-24T02:19:14.418Z,13.1
2017-07-24T02:20:16.481Z,13.1
2017-07-24T02:21:18.533Z,13.1
2017-07-24T02:22:20.582Z,13
2017-07-24T02:23:22.951Z,13
2017-07-24T02:24:25.336Z,13
2017-07-24T02:25:27.748Z,13
2017-07-24T02:26:30.148Z,13
2017-07-24T02:27:32.198Z,13
2017-07-24T02:28:34.241Z,13
2017-07-24T02:29:36.289Z,13
2017-07-24T02:30:38.335Z,13
2017-07-24T02:31:40.732Z,13
2017-07-24T02:32:43.132Z,13
2017-07-24T02:33:45.170Z,13.1
2017-07-24T02:34:47.213Z,13.1
2017-07-24T02:35:49.278Z,13.1
2017-07-24T02:36:51.331Z,13.1
2017-07-24T02:37:53.696Z,13.1
2017-07-24T02:38:56.103Z,13.1
2017-07-24T02:39:58.152Z,13.1
2017-07-24T02:41:00.544Z,13.1
2017-07-24T02:42:03.271Z,13.1
2017-07-24T02:43:06.365Z,13.1
2017-07-24T02:44:08.759Z,13.1
2017-07-24T02:45:11.183Z,13.1
2017-07-24T02:46:13.563Z,13.1
2017-07-24T02:47:15.962Z,13.1
2017-07-24T02:48:18.007Z,13.1
2017-07-24T02:49:20.050Z,13.1
2017-07-24T02:50:22.792Z,13
2017-07-24T02:51:24.862Z,13
2017-07-24T02:52:26.916Z,13
2017-07-24T02:53:28.958Z,12.9
2017-07-24T02:54:31.331Z,12.9
2017-07-24T02:55:33.736Z,12.9
2017-07-24T02:56:36.460Z,12.9
2017-07-24T02:57:38.520Z,12.9
2017-07-24T02:58:40.904Z,12.9
2017-07-24T02:59:42.946Z,12.8
2017-07-24T03:00:45.346Z,12.8
2017-07-24T03:01:47.392Z,12.8
2017-07-24T03:02:49.784Z,12.8
2017-07-24T03:03:52.157Z,12.8
2017-07-24T03:04:54.217Z,12.8
2017-07-24T03:05:56.935Z,12.7
2017-07-24T03:06:58.979Z,12.7
2017-07-24T03:08:01.025Z,12.7
2017-07-24T03:09:03.074Z,12.7
2017-07-24T03:10:05.120Z,12.7
2017-07-24T03:11:07.162Z,12.7
2017-07-24T03:12:09.559Z,12.8
2017-07-24T03:13:11.635Z,12.8
2017-07-24T03:14:13.677Z,12.8
2017-07-24T03:15:16.057Z,12.8
2017-07-24T03:16:18.446Z,12.7
2017-07-24T03:17:20.504Z,12.7
2017-07-24T03:18:22.546Z,12.7
2017-07-24T03:19:25.611Z,12.8
2017-07-24T03:20:27.666Z,12.7
2017-07-24T03:21:29.716Z,12.7
2017-07-24T03:22:31.771Z,12.7
2017-07-24T03:23:33.815Z,12.7
2017-07-24T03:24:35.869Z,12.7
2017-07-24T03:25:37.922Z,12.7
2017-07-24T03:26:39.957Z,12.7
2017-07-24T03:27:42.364Z,12.7
2017-07-24T03:28:44.410Z,12.7
2017-07-24T03:29:46.791Z,12.7
2017-07-24T03:30:48.866Z,12.7
2017-07-24T03:31:50.925Z,12.7
2017-07-24T03:32:53.309Z,12.7
2017-07-24T03:33:55.358Z,12.7
2017-07-24T03:34:57.398Z,12.7
2017-07-24T03:35:59.474Z,12.7
2017-07-24T03:37:01.873Z,12.7
2017-07-24T03:38:03.914Z,12.7
2017-07-24T03:39:05.954Z,12.7
2017-07-24T03:40:08.383Z,12.7
2017-07-24T03:41:10.433Z,12.8
2017-07-24T03:42:12.482Z,12.7
2017-07-24T03:43:14.879Z,12.7
2017-07-24T03:44:16.937Z,12.7
2017-07-24T03:45:19.342Z,12.7
2017-07-24T03:46:21.371Z,12.7
2017-07-24T03:47:23.436Z,12.7
2017-07-24T03:48:25.500Z,12.7
2017-07-24T03:49:27.543Z,12.7
2017-07-24T03:50:30.280Z,12.7
2017-07-24T03:51:32.334Z,12.7
2017-07-24T03:52:34.396Z,12.8
2017-07-24T03:53:36.441Z,12.8
2017-07-24T03:54:38.495Z,12.8
2017-07-24T03:55:40.537Z,12.8
2017-07-24T03:56:42.925Z,12.8
2017-07-24T03:57:44.971Z,12.8
2017-07-24T03:58:47.355Z,12.8
2017-07-24T03:59:49.749Z,12.8
2017-07-24T04:00:52.482Z,12.8
2017-07-24T04:01:55.224Z,12.8
2017-07-24T04:02:57.621Z,12.8
2017-07-24T04:04:00.012Z,12.8
2017-07-24T04:05:02.395Z,12.9
2017-07-24T04:06:04.798Z,12.9
2017-07-24T04:07:07.188Z,12.9
2017-07-24T04:08:09.251Z,12.8
2017-07-24T04:09:11.640Z,12.9
2017-07-24T04:10:14.029Z,12.9
2017-07-24T04:11:16.079Z,12.9
2017-07-24T04:12:18.160Z,12.9
2017-07-24T04:13:20.557Z,13
2017-07-24T04:14:22.944Z,13
2017-07-24T04:15:25.011Z,13
2017-07-24T04:16:27.061Z,13
2017-07-24T04:17:29.109Z,13
2017-07-24T04:18:31.498Z,13
2017-07-24T04:19:33.557Z,13
2017-07-24T04:20:35.955Z,13
2017-07-24T04:21:37.998Z,13.1
2017-07-24T04:22:40.078Z,13.1
2017-07-24T04:23:42.486Z,13.1
2017-07-24T04:24:44.537Z,13.1
2017-07-24T04:25:47.608Z,13.1
2017-07-24T04:26:50.000Z,13.1
2017-07-24T04:27:52.051Z,13.2
2017-07-24T04:28:54.117Z,13.2
2017-07-24T04:29:56.851Z,13.2
2017-07-24T04:30:59.232Z,13.2
2017-07-24T04:32:01.282Z,13.2
2017-07-24T04:33:03.344Z,13.3
2017-07-24T04:34:05.715Z,13.3
2017-07-24T04:35:08.446Z,13.3
2017-07-24T04:36:10.828Z,13.3
2017-07-24T04:37:13.222Z,13.3
2017-07-24T04:38:15.627Z,13.3
2017-07-24T04:39:18.029Z,13.4
2017-07-24T04:40:20.081Z,13.4
2017-07-24T04:41:22.124Z,13.4
2017-07-24T04:42:24.177Z,13.4
2017-07-24T04:43:26.276Z,13.4
2017-07-24T04:44:28.659Z,13.4
2017-07-24T04:45:31.040Z,13.4
2017-07-24T04:46:33.084Z,13.4
2017-07-24T04:47:35.138Z,13.4
2017-07-24T04:48:37.881Z,13.4
2017-07-24T04:49:39.920Z,13.4
2017-07-24T04:50:42.310Z,13.4
2017-07-24T04:51:44.706Z,13.4
2017-07-24T04:52:46.743Z,13.4
2017-07-24T04:53:48.811Z,13.4
2017-07-24T04:54:50.868Z,13.5
2017-07-24T04:55:52.917Z,13.5
2017-07-24T04:56:54.968Z,13.5
2017-07-24T04:57:57.042Z,13.5
2017-07-24T04:58:59.773Z,13.5
2017-07-24T05:00:01.831Z,13.5
2017-07-24T05:01:04.210Z,13.5
2017-07-24T05:02:06.280Z,13.5
2017-07-24T05:03:08.962Z,13.5
2017-07-24T05:04:11.366Z,13.5
2017-07-24T05:05:14.032Z,13.5
2017-07-24T05:06:16.123Z,13.6
2017-07-24T05:07:18.986Z,13.6
2017-07-24T05:08:21.376Z,13.6
2017-07-24T05:09:23.444Z,13.6
2017-07-24T05:10:26.738Z,13.6
2017-07-24T05:11:31.742Z,13.6
2017-07-24T05:12:34.574Z,13.6
2017-07-24T05:13:38.052Z,13.6
2017-07-24T05:14:41.492Z,13.7
2017-07-24T05:15:43.560Z,13.7
2017-07-24T05:16:45.605Z,13.7
2017-07-24T05:17:47.669Z,13.7
2017-07-24T05:18:49.721Z,13.7
2017-07-24T05:19:52.106Z,13.8
2017-07-24T05:20:54.149Z,13.8
2017-07-24T05:21:56.219Z,13.9
2017-07-24T05:22:58.279Z,13.9
2017-07-24T05:24:00.314Z,14
2017-07-24T05:25:03.063Z,14.1
2017-07-24T05:26:05.472Z,14.1
2017-07-24T05:27:07.536Z,14.1
2017-07-24T05:28:09.584Z,14.2
2017-07-24T05:29:11.993Z,14.3
2017-07-24T05:30:14.060Z,14.3
2017-07-24T05:31:16.118Z,14.3
2017-07-24T05:32:18.542Z,14.4
2017-07-24T05:33:20.597Z,14.5
2017-07-24T05:34:22.989Z,14.5
2017-07-24T05:35:25.054Z,14.6
2017-07-24T05:36:27.095Z,14.6
2017-07-24T05:37:29.153Z,14.7
2017-07-24T05:38:31.219Z,14.7
2017-07-24T05:39:33.270Z,14.8
2017-07-24T05:40:35.319Z,14.8
2017-07-24T05:41:37.365Z,14.8
2017-07-24T05:42:39.425Z,14.9
2017-07-24T05:43:41.476Z,14.9
2017-07-24T05:44:43.540Z,14.9
2017-07-24T05:45:45.613Z,15
2017-07-24T05:46:48.341Z,15.1
2017-07-24T05:47:51.403Z,15.1
2017-07-24T05:48:53.463Z,15.1
2017-07-24T05:49:55.518Z,15.2
2017-07-24T05:50:57.568Z,15.2
2017-07-24T05:52:05.751Z,15.3
2017-07-24T05:53:09.367Z,15.3
2017-07-24T05:54:11.423Z,15.4
2017-07-24T05:55:13.478Z,15.4
2017-07-24T05:56:15.537Z,15.5
2017-07-24T05:57:17.615Z,15.5
2017-07-24T05:58:19.655Z,15.6
2017-07-24T05:59:21.718Z,15.6
2017-07-24T06:00:24.497Z,15.7
2017-07-24T06:01:26.561Z,15.7
2017-07-24T06:02:28.716Z,15.7
2017-07-24T06:03:31.118Z,15.7
2017-07-24T06:04:33.500Z,15.8
2017-07-24T06:05:35.562Z,15.8
2017-07-24T06:06:37.627Z,15.8
2017-07-24T06:07:39.687Z,15.9
2017-07-24T06:08:41.737Z,15.9
2017-07-24T06:09:44.481Z,16
2017-07-24T06:10:46.881Z,16
2017-07-24T06:11:48.935Z,16.1
2017-07-24T06:12:50.991Z,16.1
2017-07-24T06:13:53.044Z,16.1
2017-07-24T06:14:55.462Z,16.2
2017-07-24T06:15:57.862Z,16.2
2017-07-24T06:16:59.915Z,16.2
2017-07-24T06:18:02.323Z,16.3
2017-07-24T06:19:04.718Z,16.3
2017-07-24T06:20:06.779Z,16.4
2017-07-24T06:21:08.830Z,16.4
2017-07-24T06:22:10.890Z,16.5
2017-07-24T06:23:13.965Z,16.5
2017-07-24T06:24:16.010Z,16.5
2017-07-24T06:25:18.407Z,16.5
2017-07-24T06:26:20.472Z,16.6
2017-07-24T06:27:22.521Z,16.6
2017-07-24T06:28:24.570Z,16.6
2017-07-24T06:29:26.973Z,16.7
2017-07-24T06:30:29.028Z,16.7
2017-07-24T06:31:31.095Z,16.7
2017-07-24T06:32:33.143Z,16.7
2017-07-24T06:33:35.555Z,16.7
2017-07-24T06:34:37.953Z,16.7
2017-07-24T06:35:40.338Z,16.8
2017-07-24T06:36:42.408Z,16.8
2017-07-24T06:37:44.822Z,16.8
2017-07-24T06:38:47.204Z,16.8
2017-07-24T06:39:49.261Z,16.8
2017-07-24T06:40:51.313Z,16.9
2017-07-24T06:41:53.402Z,16.9
2017-07-24T06:42:55.464Z,17
2017-07-24T06:43:57.546Z,17
2017-07-24T06:44:59.604Z,17.1
2017-07-24T06:46:01.666Z,17.1
2017-07-24T06:47:04.071Z,17.1
2017-07-24T06:48:06.479Z,17.2
2017-07-24T06:49:08.521Z,17.1
2017-07-24T06:50:10.589Z,17.2
2017-07-24T06:51:12.657Z,17.2
2017-07-24T06:52:14.709Z,17.2
2017-07-24T06:53:16.757Z,17.2
2017-07-24T06:54:19.160Z,17.2
2017-07-24T06:55:21.220Z,17.2
2017-07-24T06:56:23.639Z,17.3
2017-07-24T06:57:25.702Z,17.3
2017-07-24T06:58:28.129Z,17.3
2017-07-24T06:59:30.179Z,17.3
2017-07-24T07:00:32.242Z,17.4
2017-07-24T07:01:34.291Z,17.5
2017-07-24T07:02:36.357Z,17.5
2017-07-24T07:03:38.424Z,17.4
2017-07-24T07:04:40.816Z,17.4
2017-07-24T07:05:42.888Z,17.4
2017-07-24T07:06:45.286Z,17.5
2017-07-24T07:07:47.344Z,17.6
2017-07-24T07:08:49.404Z,17.5
2017-07-24T07:09:51.792Z,17.6
2017-07-24T07:10:53.856Z,17.6
2017-07-24T07:11:56.251Z,17.7
2017-07-24T07:12:58.659Z,17.7
2017-07-24T07:14:00.726Z,17.7
2017-07-24T07:15:03.119Z,17.8
2017-07-24T07:16:05.179Z,17.8
2017-07-24T07:17:07.230Z,17.9
2017-07-24T07:18:09.295Z,17.9
2017-07-24T07:19:11.699Z,17.9
2017-07-24T07:20:14.431Z,18
2017-07-24T07:21:16.489Z,18
2017-07-24T07:22:18.550Z,18
2017-07-24T07:23:20.604Z,18
2017-07-24T07:24:22.666Z,18.1
2017-07-24T07:25:24.735Z,18.1
2017-07-24T07:26:26.797Z,18.1
2017-07-24T07:27:28.858Z,18.2
2017-07-24T07:28:31.267Z,18.2
2017-07-24T07:29:33.317Z,18.2
2017-07-24T07:30:35.393Z,18.3
2017-07-24T07:31:37.796Z,18.3
2017-07-24T07:32:40.202Z,18.4
2017-07-24T07:33:42.613Z,18.4
2017-07-24T07:34:44.675Z,18.4
2017-07-24T07:35:46.722Z,18.4
2017-07-24T07:36:48.785Z,18.4
2017-07-24T07:37:50.834Z,18.5
2017-07-24T07:38:52.909Z,18.5
2017-07-24T07:39:54.976Z,18.6
2017-07-24T07:40:57.409Z,18.5
2017-07-24T07:41:59.466Z,18.6
2017-07-24T07:43:01.535Z,18.6
2017-07-24T07:44:03.928Z,18.6
2017-07-24T07:45:06.664Z,18.6
2017-07-24T07:46:09.063Z,18.6
2017-07-24T07:47:11.847Z,18.6
2017-07-24T07:48:14.604Z,18.7
2017-07-24T07:49:17.003Z,18.7
2017-07-24T07:50:19.058Z,18.8
2017-07-24T07:51:21.125Z,18.8
2017-07-24T07:52:23.517Z,18.8
2017-07-24T07:53:25.588Z,18.9
2017-07-24T07:54:27.646Z,18.9
2017-07-24T07:55:29.705Z,18.9
2017-07-24T07:56:31.764Z,19
2017-07-24T07:57:33.825Z,19
2017-07-24T07:58:35.877Z,18.9
2017-07-24T07:59:37.941Z,18.8
2017-07-24T08:00:40.464Z,18.9
2017-07-24T08:01:42.544Z,19
2017-07-24T08:02:44.615Z,19
2017-07-24T08:03:47.005Z,19
2017-07-24T08:04:49.070Z,19
2017-07-24T08:05:51.490Z,19
2017-07-24T08:06:53.889Z,19.1
2017-07-24T08:07:56.287Z,19.2
2017-07-24T08:08:58.336Z,19.2
2017-07-24T08:10:00.406Z,19.2
2017-07-24T08:11:02.823Z,19.2
2017-07-24T08:12:04.875Z,19.2
2017-07-24T08:13:07.282Z,19.3
2017-07-24T08:14:09.683Z,19.3
2017-07-24T08:15:11.739Z,19.4
2017-07-24T08:16:14.148Z,19.4
2017-07-24T08:17:16.565Z,19.5
2017-07-24T08:18:18.971Z,19.6
2017-07-24T08:19:21.031Z,19.6
2017-07-24T08:20:23.099Z,19.6
2017-07-24T08:21:25.180Z,19.7
2017-07-24T08:22:27.579Z,19.8
2017-07-24T08:23:29.643Z,19.9
2017-07-24T08:24:32.056Z,19.8
2017-07-24T08:25:34.127Z,19.9
2017-07-24T08:26:36.541Z,20
2017-07-24T08:27:38.590Z,20
2017-07-24T08:28:40.666Z,20
2017-07-24T08:29:42.719Z,20
2017-07-24T08:30:44.772Z,20
2017-07-24T08:31:46.830Z,20.2
2017-07-24T08:32:48.901Z,20.2
2017-07-24T08:33:50.954Z,20.3
2017-07-24T08:34:53.346Z,20.2
2017-07-24T08:35:55.408Z,20.2
2017-07-24T08:36:57.468Z,20.4
2017-07-24T08:38:00.201Z,20.5
2017-07-24T08:39:02.262Z,20.6
2017-07-24T08:40:04.326Z,20.7
2017-07-24T08:41:06.394Z,20.8
2017-07-24T08:42:08.454Z,20.9
2017-07-24T08:43:10.535Z,21
2017-07-24T08:44:12.595Z,21
2017-07-24T08:45:14.653Z,21.1
2017-07-24T08:46:17.419Z,21.2
2017-07-24T08:47:19.484Z,21.3
2017-07-24T08:48:21.549Z,21.4
2017-07-24T08:49:23.949Z,21.5
2017-07-24T08:50:26.024Z,21.5
2017-07-24T08:51:28.083Z,21.5
2017-07-24T08:52:30.813Z,21.6
2017-07-24T08:53:33.226Z,21.6
2017-07-24T08:54:35.624Z,21.5
2017-07-24T08:55:38.032Z,21.5
2017-07-24T08:56:40.767Z,21.5
2017-07-24T08:57:43.173Z,21.5
2017-07-24T08:58:45.221Z,21.5
2017-07-24T08:59:47.276Z,21.5
2017-07-24T09:00:49.362Z,21.3
2017-07-24T09:01:51.433Z,21.3
2017-07-24T09:02:53.496Z,21.2
2017-07-24T09:03:55.900Z,21.1
2017-07-24T09:04:58.305Z,21.2
2017-07-24T09:06:00.385Z,21
2017-07-24T09:07:02.814Z,21
2017-07-24T09:08:05.217Z,21.2
2017-07-24T09:09:07.298Z,21.4
2017-07-24T09:10:09.366Z,21.3
2017-07-24T09:11:11.750Z,21.2
2017-07-24T09:12:14.150Z,21.3
2017-07-24T09:13:16.548Z,21.3
2017-07-24T09:14:18.944Z,21.2
2017-07-24T09:15:21.359Z,21.3
2017-07-24T09:16:23.410Z,21.5
2017-07-24T09:17:25.485Z,21.5
2017-07-24T09:18:27.540Z,21.4
2017-07-24T09:19:29.953Z,21.5
2017-07-24T09:20:32.020Z,21.4
2017-07-24T09:21:34.094Z,21.5
2017-07-24T09:22:36.150Z,21.6
2017-07-24T09:23:38.248Z,21.6
2017-07-24T09:24:40.303Z,21.7
2017-07-24T09:25:42.396Z,21.8
2017-07-24T09:26:44.458Z,21.9
2017-07-24T09:27:46.862Z,21.8
2017-07-24T09:28:48.928Z,22
2017-07-24T09:29:50.994Z,22.1
2017-07-24T09:30:53.089Z,22.2
2017-07-24T09:31:56.207Z,22.4
2017-07-24T09:32:58.259Z,22.4
2017-07-24T09:34:00.364Z,22.5
2017-07-24T09:35:03.140Z,22.6
2017-07-24T09:36:05.212Z,22.7
2017-07-24T09:37:07.612Z,22.6
2017-07-24T09:38:10.355Z,22.6
2017-07-24T09:39:12.773Z,22.6
2017-07-24T09:40:14.842Z,22.6
2017-07-24T09:41:17.247Z,22.6
2017-07-24T09:42:19.319Z,22.8
2017-07-24T09:43:21.715Z,22.9
2017-07-24T09:44:23.792Z,23.3
2017-07-24T09:45:25.855Z,23.5
2017-07-24T09:46:27.913Z,23.4
2017-07-24T09:47:29.992Z,23.3
2017-07-24T09:48:32.407Z,23.2
2017-07-24T09:49:34.824Z,23.2
2017-07-24T09:50:36.902Z,23.6
2017-07-24T09:51:38.951Z,23.9
2017-07-24T09:52:41.029Z,23.8
2017-07-24T09:53:43.438Z,23.6
2017-07-24T09:54:45.511Z,23.5
2017-07-24T09:55:47.570Z,23.9
2017-07-24T09:56:49.651Z,23.7
2017-07-24T09:57:51.753Z,23.9
2017-07-24T09:58:54.163Z,24.1
2017-07-24T09:59:56.569Z,24.1
2017-07-24T10:00:58.672Z,23.9
2017-07-24T10:02:00.743Z,23.4
2017-07-24T10:03:02.807Z,23.2
2017-07-24T10:04:05.220Z,23.4
2017-07-24T10:05:07.694Z,23.6
2017-07-24T10:06:09.749Z,23.6
2017-07-24T10:07:11.826Z,23.8
2017-07-24T10:08:14.591Z,23.8
2017-07-24T10:09:16.668Z,23.9
2017-07-24T10:10:18.753Z,24.1
2017-07-24T10:11:20.823Z,24.1
2017-07-24T10:12:23.235Z,24
2017-07-24T10:13:25.304Z,23.9
2017-07-24T10:14:27.374Z,23.6
2017-07-24T10:15:29.462Z,23.3
2017-07-24T10:16:31.894Z,23.6
2017-07-24T10:17:33.957Z,23.9
2017-07-24T10:18:36.732Z,24.4
2017-07-24T10:19:38.835Z,24.5
2017-07-24T10:20:40.911Z,24.8
2017-07-24T10:21:42.996Z,24.6
2017-07-24T10:22:45.079Z,24.2
2017-07-24T10:23:47.148Z,24
2017-07-24T10:24:49.207Z,24.3
2017-07-24T10:25:51.615Z,24.4
2017-07-24T10:26:53.694Z,24.1
2017-07-24T10:27:56.150Z,23.9
2017-07-24T10:28:58.571Z,23.9
2017-07-24T10:30:00.986Z,23.7
2017-07-24T10:31:03.403Z,23.4
2017-07-24T10:32:05.485Z,23.3
2017-07-24T10:33:07.564Z,23.1
2017-07-24T10:34:09.970Z,22.9
2017-07-24T10:35:12.043Z,22.8
2017-07-24T10:36:14.464Z,22.7
2017-07-24T10:37:16.551Z,22.7
2017-07-24T10:38:18.622Z,22.5
2017-07-24T10:39:20.682Z,22.5
2017-07-24T10:40:22.774Z,22.7
2017-07-24T10:41:24.841Z,23.1
2017-07-24T10:42:27.270Z,23.4
2017-07-24T10:43:29.367Z,23.6
2017-07-24T10:44:32.137Z,23.9
2017-07-24T10:45:34.548Z,23.9
2017-07-24T10:46:36.617Z,24.2
2017-07-24T10:47:38.680Z,24.3
2017-07-24T10:48:40.764Z,24.5
2017-07-24T10:49:42.826Z,24.6
2017-07-24T10:50:44.913Z,24.7
2017-07-24T10:51:47.663Z,24.7
2017-07-24T10:52:49.734Z,24.5
2017-07-24T10:53:51.814Z,25
2017-07-24T10:54:54.227Z,25.2
2017-07-24T10:55:56.990Z,25
2017-07-24T10:56:59.406Z,24.7
2017-07-24T10:58:01.471Z,24.6
2017-07-24T10:59:03.555Z,24.4
2017-07-24T11:00:05.975Z,24.3
2017-07-24T11:01:08.406Z,24.3
2017-07-24T11:02:10.833Z,24.4
2017-07-24T11:03:12.917Z,24.3
2017-07-24T11:04:15.334Z,24.5
2017-07-24T11:05:17.749Z,24.5
2017-07-24T11:06:20.164Z,24.5
2017-07-24T11:07:22.941Z,25.1
2017-07-24T11:08:25.347Z,25.1
2017-07-24T11:09:27.759Z,24.9
2017-07-24T11:10:29.838Z,25
2017-07-24T11:11:31.928Z,25
2017-07-24T11:12:34.010Z,24.8
2017-07-24T11:13:36.804Z,24.7
2017-07-24T11:14:38.869Z,24.4
2017-07-24T11:15:40.949Z,24
2017-07-24T11:16:43.022Z,23.8
2017-07-24T11:17:45.113Z,23.9
2017-07-24T11:18:47.186Z,23.6
2017-07-24T11:19:49.339Z,23.5
2017-07-24T11:20:51.417Z,23.4
2017-07-24T11:21:53.486Z,23.3
2017-07-24T11:22:55.556Z,23.3
2017-07-24T11:23:57.628Z,23.1
2017-07-24T11:24:59.707Z,23.1
2017-07-24T11:26:01.799Z,23
2017-07-24T11:27:03.863Z,22.9
2017-07-24T11:28:06.615Z,22.8
2017-07-24T11:29:08.691Z,22.7
2017-07-24T11:30:11.106Z,22.6
2017-07-24T11:31:13.202Z,22.5
2017-07-24T11:32:15.274Z,22.5
2017-07-24T11:33:17.338Z,22.4
2017-07-24T11:34:19.750Z,22.3
2017-07-24T11:35:21.814Z,22.4
2017-07-24T11:36:23.884Z,22.4
2017-07-24T11:37:25.945Z,22.5
2017-07-24T11:38:28.024Z,22.6
2017-07-24T11:39:30.089Z,22.5
2017-07-24T11:40:32.162Z,22.5
2017-07-24T11:41:34.235Z,22.5
2017-07-24T11:42:36.302Z,22.5
2017-07-24T11:43:38.381Z,22.5
2017-07-24T11:44:40.454Z,22.5
2017-07-24T11:45:42.517Z,22.5
2017-07-24T11:46:44.600Z,22.5
2017-07-24T11:47:47.038Z,22.4
2017-07-24T11:48:49.133Z,22.3
2017-07-24T11:49:51.202Z,22.4
2017-07-24T11:50:53.267Z,22.5
2017-07-24T11:51:55.338Z,22.6
2017-07-24T11:52:57.429Z,22.8
2017-07-24T11:53:59.494Z,23
2017-07-24T11:55:01.550Z,22.9
2017-07-24T11:56:03.965Z,22.9
2017-07-24T11:57:06.092Z,22.8
2017-07-24T11:58:08.161Z,22.6
2017-07-24T11:59:10.230Z,22.8
2017-07-24T12:00:12.988Z,22.8
2017-07-24T12:01:15.055Z,22.9
2017-07-24T12:02:17.101Z,22.9
2017-07-24T12:03:19.513Z,23
2017-07-24T12:04:21.592Z,23.1
2017-07-24T12:05:23.665Z,23
2017-07-24T12:06:26.079Z,23.4
2017-07-24T12:07:28.155Z,23.8
2017-07-24T12:08:30.225Z,24.2
2017-07-24T12:09:32.974Z,24.1
2017-07-24T12:10:35.038Z,24.3
2017-07-24T12:11:37.115Z,24.3
2017-07-24T12:12:39.181Z,24.1
2017-07-24T12:13:41.236Z,24.1
2017-07-24T12:14:43.299Z,24.2
2017-07-24T12:15:45.716Z,24.3
2017-07-24T12:16:47.807Z,24.3
2017-07-24T12:17:50.573Z,24.1
2017-07-24T12:18:53.000Z,24.2
2017-07-24T12:19:55.082Z,24.1
2017-07-24T12:20:57.148Z,24
2017-07-24T12:21:59.233Z,24.1
2017-07-24T12:23:01.654Z,24
2017-07-24T12:24:03.732Z,23.8
2017-07-24T12:25:05.801Z,23.7
2017-07-24T12:26:08.239Z,23.9
2017-07-24T12:27:10.321Z,23.7
2017-07-24T12:28:12.372Z,23.6
2017-07-24T12:29:14.453Z,23.7
2017-07-24T12:30:16.555Z,23.6
2017-07-24T12:31:18.622Z,23.6
2017-07-24T12:32:20.685Z,23.5
2017-07-24T12:33:22.763Z,23.5
2017-07-24T12:34:24.826Z,23.2
2017-07-24T12:35:27.228Z,23.1
2017-07-24T12:36:29.298Z,23.2
2017-07-24T12:37:31.385Z,23.1
2017-07-24T12:38:33.813Z,23.3
2017-07-24T12:39:35.878Z,23.2
2017-07-24T12:40:37.965Z,23.1
2017-07-24T12:41:40.037Z,23
2017-07-24T12:42:42.110Z,23.1
2017-07-24T12:43:44.171Z,22.8
2017-07-24T12:44:46.250Z,22.9
2017-07-24T12:45:49.071Z,22.8
2017-07-24T12:46:51.138Z,22.6
2017-07-24T12:47:53.549Z,22.6
2017-07-24T12:48:55.620Z,22.5
2017-07-24T12:49:57.722Z,22.5
2017-07-24T12:50:59.784Z,22.4
2017-07-24T12:52:01.875Z,22.4
2017-07-24T12:53:04.291Z,22.3
2017-07-24T12:54:06.363Z,22.4
2017-07-24T12:55:34.143Z,22.3
2017-07-24T12:56:36.593Z,22.1
2017-07-24T12:57:39.047Z,21.9
2017-07-24T12:58:41.168Z,21.8
2017-07-24T12:59:43.618Z,21.7
2017-07-24T13:00:45.757Z,21.7
2017-07-24T13:01:47.878Z,21.6
2017-07-24T13:02:49.992Z,21.5
2017-07-24T13:03:52.440Z,21.4
2017-07-24T13:04:54.550Z,21.4
2017-07-24T13:05:57.023Z,21.6
2017-07-24T13:06:59.140Z,21.5
2017-07-24T13:08:01.245Z,21.3
2017-07-24T13:09:04.048Z,21.4
2017-07-24T13:10:06.484Z,21.4
2017-07-24T13:11:08.633Z,21.4
2017-07-24T13:12:10.747Z,21.4
2017-07-24T13:13:12.851Z,21.4
2017-07-24T13:14:14.960Z,21.4
2017-07-24T13:15:17.070Z,21.4
2017-07-24T13:16:19.523Z,21.3
2017-07-24T13:17:21.983Z,21.3
2017-07-24T13:18:24.088Z,21.2
2017-07-24T13:19:26.210Z,21.1
2017-07-24T13:20:29.010Z,21.1
2017-07-24T13:21:31.109Z,21.2
2017-07-24T13:22:33.564Z,21.1
2017-07-24T13:23:36.023Z,21.1
2017-07-24T13:24:38.140Z,21
2017-07-24T13:25:40.602Z,21
2017-07-24T13:26:42.712Z,21
2017-07-24T13:27:44.813Z,21
2017-07-24T13:28:46.916Z,21
2017-07-24T13:29:49.039Z,21.1
2017-07-24T13:30:51.155Z,21.1
2017-07-24T13:31:53.263Z,21
2017-07-24T13:32:55.370Z,21
2017-07-24T13:33:57.828Z,21
2017-07-24T13:35:00.260Z,21
2017-07-24T13:36:02.724Z,21
2017-07-24T13:37:04.823Z,21
2017-07-24T13:38:07.285Z,21.1
2017-07-24T13:39:09.392Z,21.1
2017-07-24T13:40:11.828Z,21.1
2017-07-24T13:41:14.299Z,21.2
2017-07-24T13:42:16.436Z,21.3
2017-07-24T13:43:18.948Z,21.3
2017-07-24T13:44:21.058Z,21.3
2017-07-24T13:45:23.175Z,21.4
2017-07-24T13:46:25.287Z,21.3
2017-07-24T13:47:27.397Z,21.4
2017-07-24T13:48:29.531Z,21.4
2017-07-24T13:49:31.833Z,21.4
2017-07-24T13:50:34.654Z,21.3
2017-07-24T13:51:37.105Z,21.2
2017-07-24T13:52:39.567Z,21.2
2017-07-24T13:53:41.672Z,21.2
2017-07-24T13:54:44.484Z,21.2